sensor_id;sensor_type;location;lat;lon;timestamp;P1;durP1;ratioP1;P2;durP2;ratioP2
2866;SDS011;1441;48.886;8.728;2023-01-01T00:01:06;11.17;;;6.30;;
2866;SDS011;1441;48.886;8.728;2023-01-01T00:03:36;10.30;;;6.97;;
2866;SDS011;1441;48.886;8.728;2023-01-01T00:06:06;6.73;;;5.23;;
2866;SDS011;1441;48.886;8.728;2023-01-01T00:08:33;7.20;;;4.50;;
2866;SDS011;1441;48.886;8.728;2023-01-01T00:11:00;5.53;;;3.20;;
2866;SDS011;1441;48.886;8.728;2023-01-01T00:13:26;2.97;;;2.67;;
2866;SDS011;1441;48.886;8.728;2023-01-01T00:15:52;2.83;;;2.10;;
2866;SDS011;1441;48.886;8.728;2023-01-01T00:18:17;4.40;;;2.63;;
2866;SDS011;1441;48.886;8.728;2023-01-01T00:20:43;4.63;;;2.73;;
2866;SDS011;1441;48.886;8.728;2023-01-01T00:23:08;7.47;;;3.37;;
2866;SDS011;1441;48.886;8.728;2023-01-01T00:25:34;4.47;;;3.03;;
2866;SDS011;1441;48.886;8.728;2023-01-01T00:27:59;3.60;;;2.43;;
2866;SDS011;1441;48.886;8.728;2023-01-01T00:30:25;2.70;;;2.40;;
2866;SDS011;1441;48.886;8.728;2023-01-01T00:32:51;3.60;;;3.30;;
2866;SDS011;1441;48.886;8.728;2023-01-01T00:35:16;6.30;;;5.70;;
2866;SDS011;1441;48.886;8.728;2023-01-01T00:37:42;9.73;;;8.03;;
2866;SDS011;1441;48.886;8.728;2023-01-01T00:40:08;13.43;;;8.20;;
2866;SDS011;1441;48.886;8.728;2023-01-01T00:42:34;10.20;;;8.37;;
2866;SDS011;1441;48.886;8.728;2023-01-01T00:45:04;10.77;;;9.07;;
2866;SDS011;1441;48.886;8.728;2023-01-01T00:47:30;14.23;;;10.63;;
2866;SDS011;1441;48.886;8.728;2023-01-01T00:49:56;13.70;;;9.10;;
2866;SDS011;1441;48.886;8.728;2023-01-01T00:52:21;11.13;;;8.63;;
2866;SDS011;1441;48.886;8.728;2023-01-01T00:54:47;13.17;;;10.57;;
2866;SDS011;1441;48.886;8.728;2023-01-01T00:57:12;11.43;;;9.30;;
2866;SDS011;1441;48.886;8.728;2023-01-01T00:59:38;11.03;;;8.73;;
2866;SDS011;1441;48.886;8.728;2023-01-01T01:02:04;13.90;;;8.90;;
2866;SDS011;1441;48.886;8.728;2023-01-01T01:04:29;12.33;;;8.43;;
2866;SDS011;1441;48.886;8.728;2023-01-01T01:06:55;7.93;;;6.93;;
2866;SDS011;1441;48.886;8.728;2023-01-01T01:09:21;7.20;;;6.20;;
2866;SDS011;1441;48.886;8.728;2023-01-01T01:11:46;7.43;;;6.70;;
2866;SDS011;1441;48.886;8.728;2023-01-01T01:14:12;6.20;;;5.60;;
2866;SDS011;1441;48.886;8.728;2023-01-01T01:16:38;7.20;;;5.07;;
2866;SDS011;1441;48.886;8.728;2023-01-01T01:19:04;7.37;;;5.40;;
2866;SDS011;1441;48.886;8.728;2023-01-01T01:21:31;7.53;;;4.73;;
2866;SDS011;1441;48.886;8.728;2023-01-01T01:23:58;4.80;;;4.27;;
2866;SDS011;1441;48.886;8.728;2023-01-01T01:26:26;4.93;;;4.43;;
2866;SDS011;1441;48.886;8.728;2023-01-01T01:28:54;6.57;;;3.60;;
2866;SDS011;1441;48.886;8.728;2023-01-01T01:31:20;3.50;;;3.20;;
2866;SDS011;1441;48.886;8.728;2023-01-01T01:33:48;4.27;;;3.20;;
2866;SDS011;1441;48.886;8.728;2023-01-01T01:36:14;2.40;;;2.20;;
2866;SDS011;1441;48.886;8.728;2023-01-01T01:38:41;5.30;;;2.10;;
2866;SDS011;1441;48.886;8.728;2023-01-01T01:41:07;2.30;;;2.10;;
2866;SDS011;1441;48.886;8.728;2023-01-01T01:46:09;4.73;;;2.10;;
2866;SDS011;1441;48.886;8.728;2023-01-01T01:48:40;1.70;;;1.60;;
2866;SDS011;1441;48.886;8.728;2023-01-01T01:51:08;2.00;;;1.80;;
2866;SDS011;1441;48.886;8.728;2023-01-01T01:53:37;1.43;;;1.33;;
2866;SDS011;1441;48.886;8.728;2023-01-01T01:56:07;3.17;;;1.33;;
2866;SDS011;1441;48.886;8.728;2023-01-01T01:58:35;2.13;;;1.93;;
2866;SDS011;1441;48.886;8.728;2023-01-01T02:01:01;3.53;;;1.53;;
2866;SDS011;1441;48.886;8.728;2023-01-01T02:03:41;2.60;;;1.80;;
2866;SDS011;1441;48.886;8.728;2023-01-01T02:06:21;2.80;;;1.80;;
2866;SDS011;1441;48.886;8.728;2023-01-01T02:08:48;1.97;;;1.70;;
2866;SDS011;1441;48.886;8.728;2023-01-01T02:11:14;1.60;;;1.50;;
2866;SDS011;1441;48.886;8.728;2023-01-01T02:13:40;1.97;;;1.47;;
2866;SDS011;1441;48.886;8.728;2023-01-01T02:16:28;1.53;;;1.10;;
2866;SDS011;1441;48.886;8.728;2023-01-01T02:19:06;3.20;;;1.50;;
2866;SDS011;1441;48.886;8.728;2023-01-01T02:21:34;1.63;;;1.50;;
2866;SDS011;1441;48.886;8.728;2023-01-01T02:32:00;1.83;;;1.53;;
2866;SDS011;1441;48.886;8.728;2023-01-01T02:34:28;2.73;;;1.50;;
2866;SDS011;1441;48.886;8.728;2023-01-01T02:36:59;2.83;;;1.50;;
2866;SDS011;1441;48.886;8.728;2023-01-01T02:39:28;1.67;;;1.57;;
2866;SDS011;1441;48.886;8.728;2023-01-01T02:41:57;3.13;;;1.80;;
2866;SDS011;1441;48.886;8.728;2023-01-01T02:44:25;2.00;;;1.43;;
2866;SDS011;1441;48.886;8.728;2023-01-01T02:46:52;1.80;;;1.47;;
2866;SDS011;1441;48.886;8.728;2023-01-01T02:49:18;1.20;;;1.10;;
2866;SDS011;1441;48.886;8.728;2023-01-01T02:54:40;3.70;;;1.77;;
2866;SDS011;1441;48.886;8.728;2023-01-01T03:00:07;1.67;;;1.47;;
2866;SDS011;1441;48.886;8.728;2023-01-01T03:06:21;1.73;;;1.50;;
2866;SDS011;1441;48.886;8.728;2023-01-01T03:11:36;1.90;;;1.70;;
2866;SDS011;1441;48.886;8.728;2023-01-01T03:16:45;2.50;;;1.30;;
2866;SDS011;1441;48.886;8.728;2023-01-01T03:19:15;1.90;;;1.10;;
2866;SDS011;1441;48.886;8.728;2023-01-01T03:22:32;2.70;;;1.17;;
2866;SDS011;1441;48.886;8.728;2023-01-01T03:24:44;2.67;;;1.40;;
2866;SDS011;1441;48.886;8.728;2023-01-01T03:29:43;2.60;;;1.43;;
2866;SDS011;1441;48.886;8.728;2023-01-01T03:32:11;3.00;;;1.33;;
2866;SDS011;1441;48.886;8.728;2023-01-01T03:34:41;4.10;;;1.50;;
2866;SDS011;1441;48.886;8.728;2023-01-01T03:37:12;2.90;;;1.43;;
2866;SDS011;1441;48.886;8.728;2023-01-01T03:39:46;2.03;;;1.57;;
2866;SDS011;1441;48.886;8.728;2023-01-01T03:45:32;3.17;;;1.33;;
2866;SDS011;1441;48.886;8.728;2023-01-01T03:48:04;1.67;;;1.10;;
2866;SDS011;1441;48.886;8.728;2023-01-01T03:53:32;2.73;;;1.23;;
2866;SDS011;1441;48.886;8.728;2023-01-01T03:58:41;2.50;;;1.60;;
2866;SDS011;1441;48.886;8.728;2023-01-01T04:01:15;2.90;;;1.30;;
2866;SDS011;1441;48.886;8.728;2023-01-01T04:03:47;1.57;;;1.10;;
2866;SDS011;1441;48.886;8.728;2023-01-01T04:06:14;2.97;;;1.00;;
2866;SDS011;1441;48.886;8.728;2023-01-01T04:08:40;1.97;;;1.37;;
2866;SDS011;1441;48.886;8.728;2023-01-01T04:11:07;3.60;;;1.83;;
2866;SDS011;1441;48.886;8.728;2023-01-01T04:13:58;2.77;;;1.20;;
2866;SDS011;1441;48.886;8.728;2023-01-01T04:16:24;3.43;;;1.50;;
2866;SDS011;1441;48.886;8.728;2023-01-01T04:18:50;3.60;;;1.10;;
2866;SDS011;1441;48.886;8.728;2023-01-01T04:21:15;2.03;;;1.30;;
2866;SDS011;1441;48.886;8.728;2023-01-01T04:23:41;1.03;;;1.00;;
2866;SDS011;1441;48.886;8.728;2023-01-01T04:26:10;1.37;;;1.00;;
2866;SDS011;1441;48.886;8.728;2023-01-01T04:28:38;4.57;;;1.33;;
2866;SDS011;1441;48.886;8.728;2023-01-01T04:31:04;6.67;;;1.30;;
2866;SDS011;1441;48.886;8.728;2023-01-01T04:33:29;3.00;;;1.13;;
2866;SDS011;1441;48.886;8.728;2023-01-01T04:36:01;2.07;;;1.20;;
2866;SDS011;1441;48.886;8.728;2023-01-01T04:38:28;2.00;;;1.10;;
2866;SDS011;1441;48.886;8.728;2023-01-01T04:40:57;1.57;;;1.30;;
2866;SDS011;1441;48.886;8.728;2023-01-01T04:43:23;1.20;;;1.10;;
2866;SDS011;1441;48.886;8.728;2023-01-01T04:45:55;2.80;;;1.00;;
2866;SDS011;1441;48.886;8.728;2023-01-01T04:48:25;3.33;;;1.80;;
2866;SDS011;1441;48.886;8.728;2023-01-01T04:50:58;2.10;;;1.17;;
2866;SDS011;1441;48.886;8.728;2023-01-01T04:53:28;6.57;;;1.43;;
2866;SDS011;1441;48.886;8.728;2023-01-01T04:55:55;1.67;;;1.23;;
2866;SDS011;1441;48.886;8.728;2023-01-01T04:58:20;6.57;;;1.10;;
2866;SDS011;1441;48.886;8.728;2023-01-01T05:00:49;6.93;;;1.30;;
2866;SDS011;1441;48.886;8.728;2023-01-01T05:03:16;1.90;;;0.90;;
2866;SDS011;1441;48.886;8.728;2023-01-01T05:05:42;3.20;;;1.43;;
2866;SDS011;1441;48.886;8.728;2023-01-01T05:08:07;1.33;;;1.00;;
2866;SDS011;1441;48.886;8.728;2023-01-01T05:10:33;5.13;;;1.57;;
2866;SDS011;1441;48.886;8.728;2023-01-01T05:12:58;2.90;;;1.40;;
2866;SDS011;1441;48.886;8.728;2023-01-01T05:15:24;2.20;;;1.13;;
2866;SDS011;1441;48.886;8.728;2023-01-01T05:17:49;2.67;;;1.50;;
2866;SDS011;1441;48.886;8.728;2023-01-01T05:20:15;2.63;;;1.07;;
2866;SDS011;1441;48.886;8.728;2023-01-01T05:22:41;2.20;;;1.20;;
2866;SDS011;1441;48.886;8.728;2023-01-01T05:25:06;3.33;;;1.20;;
2866;SDS011;1441;48.886;8.728;2023-01-01T05:27:32;1.90;;;0.97;;
2866;SDS011;1441;48.886;8.728;2023-01-01T05:29:58;2.87;;;1.20;;
2866;SDS011;1441;48.886;8.728;2023-01-01T05:32:23;1.97;;;1.00;;
2866;SDS011;1441;48.886;8.728;2023-01-01T05:34:49;3.17;;;1.10;;
2866;SDS011;1441;48.886;8.728;2023-01-01T05:37:15;4.50;;;1.40;;
2866;SDS011;1441;48.886;8.728;2023-01-01T05:39:41;1.30;;;1.13;;
2866;SDS011;1441;48.886;8.728;2023-01-01T05:42:06;3.03;;;0.90;;
2866;SDS011;1441;48.886;8.728;2023-01-01T05:44:32;1.13;;;1.00;;
2866;SDS011;1441;48.886;8.728;2023-01-01T05:46:57;1.20;;;1.10;;
2866;SDS011;1441;48.886;8.728;2023-01-01T05:49:23;1.63;;;1.10;;
2866;SDS011;1441;48.886;8.728;2023-01-01T05:51:48;4.27;;;1.10;;
2866;SDS011;1441;48.886;8.728;2023-01-01T05:54:14;3.80;;;1.30;;
2866;SDS011;1441;48.886;8.728;2023-01-01T05:56:40;2.90;;;1.20;;
2866;SDS011;1441;48.886;8.728;2023-01-01T05:59:05;1.53;;;1.03;;
2866;SDS011;1441;48.886;8.728;2023-01-01T06:01:31;2.97;;;1.10;;
2866;SDS011;1441;48.886;8.728;2023-01-01T06:03:57;2.87;;;1.17;;
2866;SDS011;1441;48.886;8.728;2023-01-01T06:06:24;6.97;;;1.40;;
2866;SDS011;1441;48.886;8.728;2023-01-01T06:08:57;4.57;;;1.90;;
2866;SDS011;1441;48.886;8.728;2023-01-01T06:11:25;5.40;;;1.60;;
2866;SDS011;1441;48.886;8.728;2023-01-01T06:13:52;1.57;;;1.30;;
2866;SDS011;1441;48.886;8.728;2023-01-01T06:16:22;1.87;;;1.30;;
2866;SDS011;1441;48.886;8.728;2023-01-01T06:18:49;2.20;;;1.97;;
2866;SDS011;1441;48.886;8.728;2023-01-01T06:21:18;3.53;;;1.70;;
2866;SDS011;1441;48.886;8.728;2023-01-01T06:23:46;1.50;;;1.30;;
2866;SDS011;1441;48.886;8.728;2023-01-01T06:26:13;4.70;;;1.70;;
2866;SDS011;1441;48.886;8.728;2023-01-01T06:28:43;3.47;;;1.40;;
2866;SDS011;1441;48.886;8.728;2023-01-01T06:31:11;2.03;;;1.00;;
2866;SDS011;1441;48.886;8.728;2023-01-01T06:33:38;2.63;;;1.57;;
2866;SDS011;1441;48.886;8.728;2023-01-01T06:36:04;2.73;;;1.10;;
2866;SDS011;1441;48.886;8.728;2023-01-01T06:38:33;4.47;;;1.30;;
2866;SDS011;1441;48.886;8.728;2023-01-01T06:41:00;3.50;;;1.30;;
2866;SDS011;1441;48.886;8.728;2023-01-01T06:43:29;2.00;;;1.33;;
2866;SDS011;1441;48.886;8.728;2023-01-01T06:46:37;4.37;;;1.10;;
2866;SDS011;1441;48.886;8.728;2023-01-01T06:48:55;2.80;;;1.37;;
2866;SDS011;1441;48.886;8.728;2023-01-01T06:51:23;4.30;;;1.70;;
2866;SDS011;1441;48.886;8.728;2023-01-01T06:53:51;2.20;;;1.30;;
2866;SDS011;1441;48.886;8.728;2023-01-01T06:56:17;2.33;;;1.43;;
2866;SDS011;1441;48.886;8.728;2023-01-01T06:58:43;3.43;;;1.50;;
2866;SDS011;1441;48.886;8.728;2023-01-01T07:01:13;5.63;;;1.70;;
2866;SDS011;1441;48.886;8.728;2023-01-01T07:03:40;1.27;;;1.17;;
2866;SDS011;1441;48.886;8.728;2023-01-01T07:06:07;1.37;;;1.27;;
2866;SDS011;1441;48.886;8.728;2023-01-01T07:08:33;4.10;;;2.13;;
2866;SDS011;1441;48.886;8.728;2023-01-01T07:10:59;1.37;;;1.20;;
2866;SDS011;1441;48.886;8.728;2023-01-01T07:13:25;2.60;;;1.50;;
2866;SDS011;1441;48.886;8.728;2023-01-01T07:15:52;12.10;;;2.20;;
2866;SDS011;1441;48.886;8.728;2023-01-01T07:18:19;3.40;;;1.33;;
2866;SDS011;1441;48.886;8.728;2023-01-01T07:20:55;3.90;;;1.70;;
2866;SDS011;1441;48.886;8.728;2023-01-01T07:23:23;10.17;;;1.63;;
2866;SDS011;1441;48.886;8.728;2023-01-01T07:25:50;9.10;;;1.90;;
2866;SDS011;1441;48.886;8.728;2023-01-01T07:28:17;5.50;;;1.63;;
2866;SDS011;1441;48.886;8.728;2023-01-01T07:30:43;4.50;;;1.80;;
2866;SDS011;1441;48.886;8.728;2023-01-01T07:33:10;3.00;;;1.40;;
2866;SDS011;1441;48.886;8.728;2023-01-01T07:35:36;3.37;;;1.57;;
2866;SDS011;1441;48.886;8.728;2023-01-01T07:38:02;4.53;;;1.60;;
2866;SDS011;1441;48.886;8.728;2023-01-01T07:40:28;2.93;;;1.53;;
2866;SDS011;1441;48.886;8.728;2023-01-01T07:42:53;7.30;;;1.30;;
2866;SDS011;1441;48.886;8.728;2023-01-01T07:45:19;1.20;;;1.10;;
2866;SDS011;1441;48.886;8.728;2023-01-01T07:47:46;1.23;;;0.80;;
2866;SDS011;1441;48.886;8.728;2023-01-01T07:50:17;1.37;;;1.10;;
2866;SDS011;1441;48.886;8.728;2023-01-01T07:52:42;2.40;;;1.00;;
2866;SDS011;1441;48.886;8.728;2023-01-01T07:55:13;7.00;;;1.37;;
2866;SDS011;1441;48.886;8.728;2023-01-01T07:57:40;1.53;;;1.20;;
2866;SDS011;1441;48.886;8.728;2023-01-01T08:00:06;3.20;;;1.40;;
2866;SDS011;1441;48.886;8.728;2023-01-01T08:02:34;1.90;;;1.33;;
2866;SDS011;1441;48.886;8.728;2023-01-01T08:04:59;4.97;;;1.50;;
2866;SDS011;1441;48.886;8.728;2023-01-01T08:07:25;6.80;;;1.30;;
2866;SDS011;1441;48.886;8.728;2023-01-01T08:09:50;8.53;;;1.47;;
2866;SDS011;1441;48.886;8.728;2023-01-01T08:12:16;6.03;;;1.57;;
2866;SDS011;1441;48.886;8.728;2023-01-01T08:14:41;1.17;;;1.07;;
2866;SDS011;1441;48.886;8.728;2023-01-01T08:17:07;3.57;;;1.60;;
2866;SDS011;1441;48.886;8.728;2023-01-01T08:19:32;1.50;;;1.00;;
2866;SDS011;1441;48.886;8.728;2023-01-01T08:21:58;3.03;;;1.57;;
2866;SDS011;1441;48.886;8.728;2023-01-01T08:24:23;3.00;;;1.40;;
2866;SDS011;1441;48.886;8.728;2023-01-01T08:26:49;3.50;;;1.27;;
2866;SDS011;1441;48.886;8.728;2023-01-01T08:29:15;1.50;;;1.10;;
2866;SDS011;1441;48.886;8.728;2023-01-01T08:31:41;6.73;;;1.87;;
2866;SDS011;1441;48.886;8.728;2023-01-01T08:34:07;1.43;;;1.07;;
2866;SDS011;1441;48.886;8.728;2023-01-01T08:36:32;6.10;;;1.40;;
2866;SDS011;1441;48.886;8.728;2023-01-01T08:38:58;3.93;;;1.33;;
2866;SDS011;1441;48.886;8.728;2023-01-01T08:41:24;1.83;;;1.10;;
2866;SDS011;1441;48.886;8.728;2023-01-01T08:43:50;5.97;;;1.30;;
2866;SDS011;1441;48.886;8.728;2023-01-01T08:46:15;5.90;;;1.20;;
2866;SDS011;1441;48.886;8.728;2023-01-01T08:48:41;6.20;;;1.07;;
2866;SDS011;1441;48.886;8.728;2023-01-01T08:51:08;1.40;;;1.30;;
2866;SDS011;1441;48.886;8.728;2023-01-01T08:53:34;1.87;;;1.43;;
2866;SDS011;1441;48.886;8.728;2023-01-01T08:58:30;6.33;;;1.67;;
2866;SDS011;1441;48.886;8.728;2023-01-01T09:00:57;2.40;;;1.23;;
2866;SDS011;1441;48.886;8.728;2023-01-01T09:03:23;2.50;;;1.40;;
2866;SDS011;1441;48.886;8.728;2023-01-01T09:05:50;3.20;;;1.43;;
2866;SDS011;1441;48.886;8.728;2023-01-01T09:08:15;1.67;;;1.13;;
2866;SDS011;1441;48.886;8.728;2023-01-01T09:10:41;2.90;;;1.43;;
2866;SDS011;1441;48.886;8.728;2023-01-01T09:13:08;1.10;;;1.00;;
2866;SDS011;1441;48.886;8.728;2023-01-01T09:15:34;2.40;;;1.00;;
2866;SDS011;1441;48.886;8.728;2023-01-01T09:18:00;4.53;;;1.30;;
2866;SDS011;1441;48.886;8.728;2023-01-01T09:20:26;5.57;;;1.50;;
2866;SDS011;1441;48.886;8.728;2023-01-01T09:22:51;1.10;;;1.00;;
2866;SDS011;1441;48.886;8.728;2023-01-01T09:25:17;2.67;;;1.20;;
2866;SDS011;1441;48.886;8.728;2023-01-01T09:27:42;3.33;;;1.13;;
2866;SDS011;1441;48.886;8.728;2023-01-01T09:30:08;2.73;;;1.30;;
2866;SDS011;1441;48.886;8.728;2023-01-01T09:32:34;5.60;;;1.40;;
2866;SDS011;1441;48.886;8.728;2023-01-01T09:35:00;6.87;;;1.50;;
2866;SDS011;1441;48.886;8.728;2023-01-01T09:37:26;2.63;;;1.80;;
2866;SDS011;1441;48.886;8.728;2023-01-01T09:39:52;2.80;;;1.07;;
2866;SDS011;1441;48.886;8.728;2023-01-01T09:45:40;1.33;;;1.23;;
2866;SDS011;1441;48.886;8.728;2023-01-01T09:48:18;5.40;;;1.50;;
2866;SDS011;1441;48.886;8.728;2023-01-01T09:50:45;2.10;;;1.40;;
2866;SDS011;1441;48.886;8.728;2023-01-01T09:55:46;2.87;;;1.53;;
2866;SDS011;1441;48.886;8.728;2023-01-01T09:58:24;3.37;;;1.50;;
2866;SDS011;1441;48.886;8.728;2023-01-01T10:00:53;2.00;;;1.03;;
2866;SDS011;1441;48.886;8.728;2023-01-01T10:06:27;2.23;;;1.40;;
2866;SDS011;1441;48.886;8.728;2023-01-01T10:09:07;4.80;;;2.17;;
2866;SDS011;1441;48.886;8.728;2023-01-01T10:14:34;1.90;;;1.27;;
2866;SDS011;1441;48.886;8.728;2023-01-01T10:17:05;1.97;;;1.33;;
2866;SDS011;1441;48.886;8.728;2023-01-01T10:19:41;3.00;;;1.50;;
2866;SDS011;1441;48.886;8.728;2023-01-01T10:22:14;4.83;;;1.47;;
2866;SDS011;1441;48.886;8.728;2023-01-01T10:27:28;3.80;;;1.27;;
2866;SDS011;1441;48.886;8.728;2023-01-01T10:29:59;8.10;;;2.00;;
2866;SDS011;1441;48.886;8.728;2023-01-01T10:32:31;4.17;;;1.67;;
2866;SDS011;1441;48.886;8.728;2023-01-01T10:34:58;4.40;;;1.83;;
2866;SDS011;1441;48.886;8.728;2023-01-01T10:37:27;5.03;;;1.97;;
2866;SDS011;1441;48.886;8.728;2023-01-01T10:40:15;7.20;;;2.10;;
2866;SDS011;1441;48.886;8.728;2023-01-01T10:42:49;7.30;;;1.50;;
2866;SDS011;1441;48.886;8.728;2023-01-01T10:45:37;8.53;;;1.80;;
2866;SDS011;1441;48.886;8.728;2023-01-01T10:48:31;5.27;;;2.17;;
2866;SDS011;1441;48.886;8.728;2023-01-01T10:55:50;4.90;;;1.50;;
2866;SDS011;1441;48.886;8.728;2023-01-01T10:58:35;2.30;;;1.40;;
2866;SDS011;1441;48.886;8.728;2023-01-01T11:01:02;4.13;;;2.27;;
2866;SDS011;1441;48.886;8.728;2023-01-01T11:03:31;4.87;;;1.80;;
2866;SDS011;1441;48.886;8.728;2023-01-01T11:06:12;2.90;;;1.87;;
2866;SDS011;1441;48.886;8.728;2023-01-01T11:08:45;6.60;;;1.60;;
2866;SDS011;1441;48.886;8.728;2023-01-01T11:11:20;5.97;;;1.70;;
2866;SDS011;1441;48.886;8.728;2023-01-01T11:13:53;6.00;;;1.83;;
2866;SDS011;1441;48.886;8.728;2023-01-01T11:16:24;4.20;;;2.00;;
2866;SDS011;1441;48.886;8.728;2023-01-01T11:18:51;3.57;;;1.90;;
2866;SDS011;1441;48.886;8.728;2023-01-01T11:21:26;6.73;;;1.63;;
2866;SDS011;1441;48.886;8.728;2023-01-01T11:24:05;1.40;;;1.00;;
2866;SDS011;1441;48.886;8.728;2023-01-01T11:26:42;4.77;;;1.93;;
2866;SDS011;1441;48.886;8.728;2023-01-01T11:29:26;6.43;;;2.07;;
2866;SDS011;1441;48.886;8.728;2023-01-01T11:31:53;2.93;;;1.23;;
2866;SDS011;1441;48.886;8.728;2023-01-01T11:34:30;11.50;;;2.60;;
2866;SDS011;1441;48.886;8.728;2023-01-01T11:39:55;6.47;;;1.77;;
2866;SDS011;1441;48.886;8.728;2023-01-01T11:42:29;9.83;;;2.80;;
2866;SDS011;1441;48.886;8.728;2023-01-01T11:45:02;7.20;;;2.30;;
2866;SDS011;1441;48.886;8.728;2023-01-01T11:47:34;2.97;;;2.07;;
2866;SDS011;1441;48.886;8.728;2023-01-01T11:52:43;8.30;;;1.90;;
2866;SDS011;1441;48.886;8.728;2023-01-01T11:57:50;11.80;;;1.90;;
2866;SDS011;1441;48.886;8.728;2023-01-01T12:00:25;3.97;;;1.50;;
2866;SDS011;1441;48.886;8.728;2023-01-01T12:02:57;5.27;;;1.83;;
2866;SDS011;1441;48.886;8.728;2023-01-01T12:08:15;8.37;;;1.40;;
2866;SDS011;1441;48.886;8.728;2023-01-01T12:10:50;9.00;;;2.50;;
2866;SDS011;1441;48.886;8.728;2023-01-01T12:13:29;4.57;;;1.90;;
2866;SDS011;1441;48.886;8.728;2023-01-01T12:16:05;11.87;;;2.20;;
2866;SDS011;1441;48.886;8.728;2023-01-01T12:18:40;5.30;;;1.80;;
2866;SDS011;1441;48.886;8.728;2023-01-01T12:21:16;3.60;;;1.40;;
2866;SDS011;1441;48.886;8.728;2023-01-01T12:23:48;7.90;;;1.97;;
2866;SDS011;1441;48.886;8.728;2023-01-01T12:26:21;5.23;;;1.67;;
2866;SDS011;1441;48.886;8.728;2023-01-01T12:37:13;5.03;;;1.83;;
2866;SDS011;1441;48.886;8.728;2023-01-01T12:42:55;4.13;;;1.70;;
2866;SDS011;1441;48.886;8.728;2023-01-01T12:45:46;5.83;;;1.47;;
2866;SDS011;1441;48.886;8.728;2023-01-01T12:54:46;3.17;;;2.30;;
2866;SDS011;1441;48.886;8.728;2023-01-01T13:00:25;4.27;;;2.70;;
2866;SDS011;1441;48.886;8.728;2023-01-01T13:02:54;4.60;;;2.10;;
2866;SDS011;1441;48.886;8.728;2023-01-01T13:08:07;7.83;;;3.47;;
2866;SDS011;1441;48.886;8.728;2023-01-01T13:10:34;11.13;;;2.60;;
2866;SDS011;1441;48.886;8.728;2023-01-01T13:13:03;4.20;;;1.63;;
2866;SDS011;1441;48.886;8.728;2023-01-01T13:18:04;12.93;;;2.00;;
2866;SDS011;1441;48.886;8.728;2023-01-01T13:20:35;2.43;;;1.30;;
2866;SDS011;1441;48.886;8.728;2023-01-01T13:23:04;3.40;;;1.43;;
2866;SDS011;1441;48.886;8.728;2023-01-01T13:26:18;5.90;;;1.73;;
2866;SDS011;1441;48.886;8.728;2023-01-01T13:28:42;5.90;;;1.60;;
2866;SDS011;1441;48.886;8.728;2023-01-01T13:45:15;6.37;;;2.30;;
2866;SDS011;1441;48.886;8.728;2023-01-01T13:56:25;6.67;;;3.03;;
2866;SDS011;1441;48.886;8.728;2023-01-01T14:02:20;2.83;;;2.00;;
2866;SDS011;1441;48.886;8.728;2023-01-01T14:04:52;4.47;;;2.30;;
2866;SDS011;1441;48.886;8.728;2023-01-01T14:12:43;4.23;;;2.53;;
2866;SDS011;1441;48.886;8.728;2023-01-01T14:15:15;7.83;;;3.07;;
2866;SDS011;1441;48.886;8.728;2023-01-01T14:17:48;5.03;;;2.37;;
2866;SDS011;1441;48.886;8.728;2023-01-01T14:20:16;8.63;;;2.10;;
2866;SDS011;1441;48.886;8.728;2023-01-01T14:22:45;4.87;;;2.90;;
2866;SDS011;1441;48.886;8.728;2023-01-01T14:25:21;3.23;;;2.93;;
2866;SDS011;1441;48.886;8.728;2023-01-01T14:27:52;4.23;;;2.90;;
2866;SDS011;1441;48.886;8.728;2023-01-01T14:30:19;4.90;;;2.53;;
2866;SDS011;1441;48.886;8.728;2023-01-01T14:32:45;6.93;;;3.10;;
2866;SDS011;1441;48.886;8.728;2023-01-01T14:35:19;10.50;;;2.87;;
2866;SDS011;1441;48.886;8.728;2023-01-01T14:37:44;4.60;;;2.47;;
2866;SDS011;1441;48.886;8.728;2023-01-01T14:40:17;2.93;;;2.40;;
2866;SDS011;1441;48.886;8.728;2023-01-01T14:42:51;4.97;;;3.10;;
2866;SDS011;1441;48.886;8.728;2023-01-01T14:45:22;5.13;;;3.30;;
2866;SDS011;1441;48.886;8.728;2023-01-01T14:47:49;5.07;;;3.00;;
2866;SDS011;1441;48.886;8.728;2023-01-01T14:50:18;4.53;;;2.40;;
2866;SDS011;1441;48.886;8.728;2023-01-01T14:52:55;4.87;;;2.37;;
2866;SDS011;1441;48.886;8.728;2023-01-01T14:55:44;3.13;;;2.43;;
2866;SDS011;1441;48.886;8.728;2023-01-01T14:58:16;4.50;;;2.70;;
2866;SDS011;1441;48.886;8.728;2023-01-01T15:00:44;5.57;;;2.43;;
2866;SDS011;1441;48.886;8.728;2023-01-01T15:05:37;6.90;;;2.33;;
2866;SDS011;1441;48.886;8.728;2023-01-01T15:08:05;7.13;;;2.70;;
2866;SDS011;1441;48.886;8.728;2023-01-01T15:10:41;6.33;;;2.57;;
2866;SDS011;1441;48.886;8.728;2023-01-01T15:13:07;5.40;;;3.30;;
2866;SDS011;1441;48.886;8.728;2023-01-01T15:15:38;8.30;;;3.30;;
2866;SDS011;1441;48.886;8.728;2023-01-01T15:18:33;3.10;;;2.40;;
2866;SDS011;1441;48.886;8.728;2023-01-01T15:21:11;6.10;;;3.43;;
2866;SDS011;1441;48.886;8.728;2023-01-01T15:23:53;5.53;;;2.53;;
2866;SDS011;1441;48.886;8.728;2023-01-01T15:26:26;6.97;;;2.63;;
2866;SDS011;1441;48.886;8.728;2023-01-01T15:29:01;3.70;;;1.80;;
2866;SDS011;1441;48.886;8.728;2023-01-01T15:31:34;5.50;;;2.60;;
2866;SDS011;1441;48.886;8.728;2023-01-01T15:34:05;9.87;;;2.70;;
2866;SDS011;1441;48.886;8.728;2023-01-01T15:36:39;9.60;;;2.20;;
2866;SDS011;1441;48.886;8.728;2023-01-01T15:39:08;3.43;;;2.40;;
2866;SDS011;1441;48.886;8.728;2023-01-01T15:41:41;5.90;;;2.70;;
2866;SDS011;1441;48.886;8.728;2023-01-01T15:44:16;7.30;;;2.87;;
2866;SDS011;1441;48.886;8.728;2023-01-01T15:46:47;3.63;;;2.70;;
2866;SDS011;1441;48.886;8.728;2023-01-01T15:49:21;4.77;;;2.37;;
2866;SDS011;1441;48.886;8.728;2023-01-01T15:51:57;4.40;;;1.93;;
2866;SDS011;1441;48.886;8.728;2023-01-01T15:54:26;4.20;;;2.47;;
2866;SDS011;1441;48.886;8.728;2023-01-01T15:56:52;10.73;;;2.67;;
2866;SDS011;1441;48.886;8.728;2023-01-01T15:59:28;6.60;;;2.10;;
2866;SDS011;1441;48.886;8.728;2023-01-01T16:02:04;3.83;;;2.10;;
2866;SDS011;1441;48.886;8.728;2023-01-01T16:04:45;4.43;;;2.20;;
2866;SDS011;1441;48.886;8.728;2023-01-01T16:07:22;3.20;;;2.30;;
2866;SDS011;1441;48.886;8.728;2023-01-01T16:09:50;5.60;;;2.40;;
2866;SDS011;1441;48.886;8.728;2023-01-01T16:12:17;4.70;;;2.57;;
2866;SDS011;1441;48.886;8.728;2023-01-01T16:14:43;8.30;;;3.73;;
2866;SDS011;1441;48.886;8.728;2023-01-01T16:17:11;7.70;;;3.23;;
2866;SDS011;1441;48.886;8.728;2023-01-01T16:19:43;5.90;;;2.30;;
2866;SDS011;1441;48.886;8.728;2023-01-01T16:22:14;2.97;;;1.97;;
2866;SDS011;1441;48.886;8.728;2023-01-01T16:24:41;5.73;;;2.03;;
2866;SDS011;1441;48.886;8.728;2023-01-01T16:27:07;3.53;;;2.50;;
2866;SDS011;1441;48.886;8.728;2023-01-01T16:29:33;6.80;;;2.80;;
2866;SDS011;1441;48.886;8.728;2023-01-01T16:31:59;4.90;;;2.30;;
2866;SDS011;1441;48.886;8.728;2023-01-01T16:34:24;7.53;;;2.20;;
2866;SDS011;1441;48.886;8.728;2023-01-01T16:36:50;5.60;;;2.27;;
2866;SDS011;1441;48.886;8.728;2023-01-01T16:39:15;4.53;;;2.03;;
2866;SDS011;1441;48.886;8.728;2023-01-01T16:41:42;5.23;;;2.80;;
2866;SDS011;1441;48.886;8.728;2023-01-01T16:44:12;3.80;;;2.20;;
2866;SDS011;1441;48.886;8.728;2023-01-01T16:46:38;3.67;;;3.10;;
2866;SDS011;1441;48.886;8.728;2023-01-01T16:49:04;4.43;;;2.30;;
2866;SDS011;1441;48.886;8.728;2023-01-01T16:51:30;7.13;;;2.80;;
2866;SDS011;1441;48.886;8.728;2023-01-01T16:53:56;5.27;;;2.63;;
2866;SDS011;1441;48.886;8.728;2023-01-01T16:56:24;17.33;;;3.03;;
2866;SDS011;1441;48.886;8.728;2023-01-01T16:58:51;3.73;;;2.27;;
2866;SDS011;1441;48.886;8.728;2023-01-01T17:01:18;5.03;;;2.57;;
2866;SDS011;1441;48.886;8.728;2023-01-01T17:03:44;3.17;;;2.47;;
2866;SDS011;1441;48.886;8.728;2023-01-01T17:06:10;8.83;;;2.43;;
2866;SDS011;1441;48.886;8.728;2023-01-01T17:08:36;5.57;;;2.50;;
2866;SDS011;1441;48.886;8.728;2023-01-01T17:11:03;4.97;;;2.13;;
2866;SDS011;1441;48.886;8.728;2023-01-01T17:13:31;3.93;;;2.70;;
2866;SDS011;1441;48.886;8.728;2023-01-01T17:15:58;4.10;;;2.50;;
2866;SDS011;1441;48.886;8.728;2023-01-01T17:18:24;7.27;;;2.40;;
2866;SDS011;1441;48.886;8.728;2023-01-01T17:20:50;3.90;;;2.47;;
2866;SDS011;1441;48.886;8.728;2023-01-01T17:23:15;4.80;;;2.20;;
2866;SDS011;1441;48.886;8.728;2023-01-01T17:25:41;5.07;;;1.87;;
2866;SDS011;1441;48.886;8.728;2023-01-01T17:28:06;5.43;;;2.53;;
2866;SDS011;1441;48.886;8.728;2023-01-01T17:30:32;3.10;;;2.40;;
2866;SDS011;1441;48.886;8.728;2023-01-01T17:32:57;3.80;;;2.30;;
2866;SDS011;1441;48.886;8.728;2023-01-01T17:35:23;9.47;;;2.30;;
2866;SDS011;1441;48.886;8.728;2023-01-01T17:37:48;5.23;;;3.30;;